Time;durP1;ratioP1;P1;durP2;ratioP2;P2;SDS_P1;SDS_P2;PMS_P1;PMS_P2;Temp;Humidity;BMP_temperature;BMP_pressure;BME280_temperature;BME280_humidity;BME280_pressure;Samples;Min_cycle;Max_cycle;Signal;HPM_P1;HPM_P2
2022/01/07 00:00:28;;;;;;;11.75;7.53;;;;;;;6.97;100.00;101257.97;4899108;29;20025;-72
2022/01/07 00:03:15;;;;;;;12.13;7.60;;;;;;;7.07;100.00;101254.56;4899517;29;20033;-72
2022/01/07 00:06:01;;;;;;;13.45;8.00;;;;;;;6.69;100.00;101253.44;4892772;29;20423;-73
2022/01/07 00:08:47;;;;;;;10.90;7.15;;;;;;;6.96;100.00;101253.63;4881142;29;20423;-72
2022/01/07 00:11:32;;;;;;;11.32;7.55;;;;;;;6.84;100.00;101271.78;4880868;29;20037;-72
2022/01/07 00:14:18;;;;;;;11.02;7.40;;;;;;;6.47;100.00;101268.03;4867942;29;20025;-72
2022/01/07 00:17:04;;;;;;;11.27;7.78;;;;;;;6.56;100.00;101265.53;4880795;29;20033;-72
2022/01/07 00:19:50;;;;;;;11.60;7.85;;;;;;;6.83;100.00;101268.28;4880811;29;20040;-72
2022/01/07 00:31:28;;;;;;;14.27;8.13;;;;;;;6.57;100.00;101293.28;5369649;23;20056;-72
2022/01/07 00:34:13;;;;;;;11.38;7.78;;;;;;;6.71;100.00;101288.19;4899481;29;20033;-72
2022/01/07 00:36:59;;;;;;;11.15;8.25;;;;;;;7.00;100.00;101299.66;4887896;29;20371;-73
2022/01/07 00:39:45;;;;;;;11.57;8.23;;;;;;;6.72;100.00;101305.53;4884519;29;20033;-72
2022/01/07 00:42:31;;;;;;;12.80;8.38;;;;;;;6.62;100.00;101304.59;4883628;29;20033;-72
2022/01/07 00:45:24;;;;;;;12.48;8.30;;;;;;;7.01;100.00;101301.41;4883508;29;20025;-72
2022/01/07 00:48:10;;;;;;;12.45;8.75;;;;;;;6.92;100.00;101310.03;4884050;29;20462;-72
2022/01/07 00:50:55;;;;;;;12.77;8.30;;;;;;;6.75;100.00;101323.81;4884650;29;20120;-72
2022/01/07 00:53:41;;;;;;;14.65;8.85;;;;;;;6.80;100.00;101322.09;4884121;29;20040;-73
2022/01/07 00:56:27;;;;;;;10.13;7.50;;;;;;;6.90;100.00;101329.09;4884169;29;20130;-72
2022/01/07 00:59:13;;;;;;;11.18;7.65;;;;;;;6.87;100.00;101329.94;4883973;29;20064;-72
2022/01/07 01:01:58;;;;;;;10.80;7.57;;;;;;;6.60;100.00;101336.69;4884530;29;20455;-72
2022/01/07 01:04:45;;;;;;;11.82;7.63;;;;;;;6.77;100.00;101337.69;4883935;29;20116;-72
2022/01/07 01:07:31;;;;;;;12.40;8.35;;;;;;;6.79;100.00;101330.78;4884195;29;20040;-73
2022/01/07 01:10:19;;;;;;;11.48;8.00;;;;;;;6.64;100.00;101336.75;4870344;29;20386;-72
2022/01/07 01:13:05;;;;;;;13.10;7.80;;;;;;;6.78;100.00;101334.22;4883365;29;20029;-73
2022/01/07 01:15:51;;;;;;;14.38;8.13;;;;;;;7.16;100.00;101333.63;4869559;29;20035;-72
2022/01/07 01:18:37;;;;;;;10.60;7.32;;;;;;;6.68;100.00;101332.41;4883059;29;20513;-72
2022/01/07 01:21:23;;;;;;;11.85;7.63;;;;;;;6.60;100.00;101334.09;4883674;29;20025;-72
2022/01/07 01:24:08;;;;;;;12.02;7.72;;;;;;;6.72;100.00;101336.78;4883016;29;20113;-72
2022/01/07 01:26:54;;;;;;;10.60;8.30;;;;;;;6.97;100.00;101336.09;4869388;29;20072;-72
2022/01/07 01:29:40;;;;;;;12.82;8.35;;;;;;;6.71;100.00;101340.25;4883532;29;20419;-72
2022/01/07 01:32:26;;;;;;;10.75;7.40;;;;;;;7.05;100.00;101352.66;4882830;29;20060;-72
2022/01/07 01:35:12;;;;;;;9.80;7.35;;;;;;;6.53;100.00;101354.00;4882704;29;20029;-72
2022/01/07 01:37:58;;;;;;;11.60;7.68;;;;;;;6.81;100.00;101353.34;4883729;29;20379;-72
2022/01/07 01:40:44;;;;;;;13.50;8.10;;;;;;;6.42;100.00;101342.59;4883414;29;20025;-72
2022/01/07 01:43:30;;;;;;;11.18;7.90;;;;;;;6.31;100.00;101351.19;4882720;29;20033;-72
2022/01/07 01:46:16;;;;;;;15.82;8.45;;;;;;;6.54;100.00;101352.25;4883300;29;20438;-71
2022/01/07 01:49:04;;;;;;;12.48;8.18;;;;;;;6.66;100.00;101349.75;4883108;29;20461;-72
2022/01/07 01:51:50;;;;;;;15.23;8.48;;;;;;;6.39;100.00;101344.31;4883195;29;20044;-72
2022/01/07 01:54:35;;;;;;;13.73;8.50;;;;;;;6.71;100.00;101348.91;4882441;29;20420;-71
2022/01/07 01:57:21;;;;;;;12.40;8.32;;;;;;;6.46;100.00;101351.28;4881857;29;20035;-72
2022/01/07 02:00:09;;;;;;;13.13;9.07;;;;;;;6.72;100.00;101350.69;4882987;29;20041;-72
2022/01/07 02:02:55;;;;;;;12.50;8.95;;;;;;;6.77;100.00;101351.59;4882754;29;20033;-72
2022/01/07 02:05:46;;;;;;;11.85;8.50;;;;;;;6.89;100.00;101353.41;4882540;29;20466;-72
2022/01/07 02:08:36;;;;;;;13.07;9.30;;;;;;;7.00;100.00;101359.56;4882397;29;20032;-72
2022/01/07 02:11:22;;;;;;;11.68;8.50;;;;;;;6.65;100.00;101355.81;4882153;29;20437;-72
2022/01/07 02:28:01;;;;;;;12.50;9.25;;;;;;;6.56;100.00;101364.44;5181078;23;20179;-72
2022/01/07 02:30:47;;;;;;;14.00;9.02;;;;;;;6.55;100.00;101364.41;4886047;29;20029;-72
2022/01/07 02:33:33;;;;;;;14.82;9.93;;;;;;;6.47;100.00;101368.69;4900675;29;20021;-71
2022/01/07 02:36:19;;;;;;;15.48;9.85;;;;;;;6.78;100.00;101370.66;4891637;29;20033;-73
2022/01/07 02:39:05;;;;;;;13.90;9.98;;;;;;;6.74;100.00;101376.72;4881926;29;20037;-72
2022/01/07 02:41:50;;;;;;;15.68;10.15;;;;;;;6.68;100.00;101385.38;4881827;29;20031;-72
2022/01/07 02:44:36;;;;;;;14.70;9.80;;;;;;;6.82;100.00;101388.06;4880848;29;20029;-72
2022/01/07 02:51:04;;;;;;;16.27;10.52;;;;;;;7.00;100.00;101406.47;4881295;29;20037;-71
2022/01/07 02:53:49;;;;;;;16.17;10.15;;;;;;;7.00;100.00;101409.97;4882026;29;20043;-73
2022/01/07 02:56:36;;;;;;;14.70;10.18;;;;;;;6.83;100.00;101400.25;4881110;29;20268;-72
2022/01/07 02:59:22;;;;;;;14.90;10.65;;;;;;;6.93;100.00;101415.97;4880290;29;20036;-72
2022/01/07 03:02:08;;;;;;;14.75;10.32;;;;;;;6.77;100.00;101408.00;4881456;29;20036;-71
2022/01/07 03:04:54;;;;;;;15.32;10.73;;;;;;;6.83;100.00;101408.06;4881608;29;20041;-72
2022/01/07 03:07:40;;;;;;;16.17;11.15;;;;;;;7.06;100.00;101417.81;4881635;29;20041;-72
2022/01/07 03:10:31;;;;;;;15.15;9.85;;;;;;;7.24;100.00;101424.88;4868548;29;20047;-72
2022/01/07 03:13:17;;;;;;;16.58;11.15;;;;;;;7.19;100.00;101427.44;4881310;29;20438;-73
2022/01/07 03:16:04;;;;;;;15.80;11.25;;;;;;;7.00;100.00;101433.41;4880762;29;20063;-72
2022/01/07 03:18:50;;;;;;;14.73;10.27;;;;;;;7.19;100.00;101437.88;4880549;29;20124;-73
2022/01/07 03:21:35;;;;;;;17.40;11.23;;;;;;;6.81;100.00;101435.81;4881551;29;20075;-72
2022/01/07 03:24:21;;;;;;;15.38;10.82;;;;;;;7.14;100.00;101434.38;4880460;29;20048;-72
2022/01/07 03:27:07;;;;;;;18.05;11.10;;;;;;;7.03;100.00;101445.56;4880342;29;20052;-71
2022/01/07 03:29:53;;;;;;;17.00;11.27;;;;;;;7.16;100.00;101457.84;4880267;29;20463;-72
2022/01/07 03:32:39;;;;;;;15.75;10.85;;;;;;;7.22;100.00;101456.16;4880839;29;20029;-72
2022/01/07 03:35:25;;;;;;;17.55;10.85;;;;;;;7.16;100.00;101442.19;4880063;29;20119;-72
2022/01/07 03:38:11;;;;;;;17.90;10.50;;;;;;;6.97;100.00;101448.13;4880371;29;20033;-72
2022/01/07 03:40:57;;;;;;;17.55;11.35;;;;;;;7.43;100.00;101453.69;4881080;29;20040;-71
2022/01/07 03:43:43;;;;;;;18.17;11.27;;;;;;;7.32;100.00;101457.09;4880077;29;20028;-71
2022/01/07 03:46:29;;;;;;;15.60;11.18;;;;;;;7.32;100.00;101462.31;4881193;29;20060;-72
2022/01/07 03:49:14;;;;;;;16.92;11.07;;;;;;;7.25;100.00;101460.50;4880675;29;20482;-72
2022/01/07 03:52:00;;;;;;;16.45;11.10;;;;;;;6.91;100.00;101455.88;4881385;29;20044;-72
2022/01/07 03:54:47;;;;;;;16.45;10.82;;;;;;;7.17;100.00;101456.97;4880495;29;20033;-72
2022/01/07 03:57:33;;;;;;;16.98;11.18;;;;;;;6.56;100.00;101455.56;4881363;29;20040;-72
2022/01/07 04:00:21;;;;;;;17.00;11.50;;;;;;;6.84;100.00;101454.09;4880036;29;20347;-72
2022/01/07 04:03:11;;;;;;;18.88;11.98;;;;;;;6.83;100.00;101460.16;4881037;29;20033;-73
2022/01/07 04:05:57;;;;;;;19.05;12.48;;;;;;;6.77;100.00;101462.69;4880899;29;20116;-71
2022/01/07 04:08:42;;;;;;;18.17;12.00;;;;;;;6.81;100.00;101467.94;4881285;29;20025;-72
2022/01/07 04:11:28;;;;;;;18.02;11.77;;;;;;;6.70;100.00;101463.47;4884261;29;20029;-72
2022/01/07 04:22:51;;;;;;;19.48;13.73;;;;;;;6.72;100.00;101473.06;4883135;29;20117;-71
2022/01/07 04:25:37;;;;;;;19.38;13.45;;;;;;;6.59;100.00;101473.78;4884284;29;20021;-71
2022/01/07 04:28:23;;;;;;;20.00;13.50;;;;;;;6.51;100.00;101471.97;4883855;29;20029;-72
2022/01/07 04:31:09;;;;;;;22.65;13.80;;;;;;;6.68;100.00;101489.53;4883387;29;20032;-70
2022/01/07 04:33:55;;;;;;;20.77;13.60;;;;;;;6.70;100.00;101489.50;4884207;29;20382;-71
2022/01/07 04:36:41;;;;;;;20.15;13.40;;;;;;;6.69;100.00;101485.16;4883103;29;20029;-71
2022/01/07 04:39:27;;;;;;;18.88;13.18;;;;;;;6.59;100.00;101488.56;4884251;29;20028;-71
2022/01/07 04:42:12;;;;;;;20.05;13.40;;;;;;;6.71;100.00;101484.31;4883286;29;20040;-72
2022/01/07 04:47:40;;;;;;;22.80;14.88;;;;;;;6.55;100.00;101481.56;5574439;23;20071;-72
2022/01/07 04:50:27;;;;;;;20.58;14.13;;;;;;;6.43;100.00;101494.44;4901764;29;20036;-72
2022/01/07 04:53:13;;;;;;;23.23;14.32;;;;;;;6.72;100.00;101490.41;4902527;29;20025;-72
2022/01/07 04:55:59;;;;;;;26.45;13.82;;;;;;;6.57;100.00;101500.66;4896450;29;20033;-72
2022/01/07 04:58:44;;;;;;;23.05;15.05;;;;;;;6.74;100.00;101506.91;4882678;29;20037;-72
2022/01/07 05:01:30;;;;;;;23.58;13.48;;;;;;;6.50;100.00;101510.13;4883964;29;20382;-71
2022/01/07 05:04:16;;;;;;;22.70;14.63;;;;;;;6.67;100.00;101515.53;4883080;29;20044;-72
2022/01/07 05:07:02;;;;;;;21.05;14.10;;;;;;;6.49;100.00;101511.00;4882597;29;20021;-72
2022/01/07 05:09:48;;;;;;;22.35;13.95;;;;;;;6.26;100.00;101508.97;4883418;29;20366;-71
2022/01/07 05:12:33;;;;;;;22.00;14.48;;;;;;;6.54;100.00;101517.13;4883200;29;20037;-73
2022/01/07 05:15:19;;;;;;;20.60;13.50;;;;;;;6.41;100.00;101519.56;4883349;29;20407;-71
2022/01/07 05:18:05;;;;;;;26.13;15.45;;;;;;;6.54;100.00;101526.66;4882778;29;20116;-70
2022/01/07 05:20:51;;;;;;;22.13;14.57;;;;;;;6.60;100.00;101527.63;4867432;29;20036;-73
2022/01/07 05:23:37;;;;;;;24.40;15.25;;;;;;;6.54;100.00;101532.75;4881104;29;20025;-73
2022/01/07 05:26:23;;;;;;;25.75;14.38;;;;;;;6.66;100.00;101540.69;4882727;29;20029;-73
2022/01/07 05:29:09;;;;;;;21.52;14.38;;;;;;;6.54;100.00;101544.88;4869285;29;20036;-71
2022/01/07 05:31:54;;;;;;;22.40;14.60;;;;;;;6.72;100.00;101540.78;4882788;29;20025;-72
2022/01/07 05:34:42;;;;;;;23.05;14.02;;;;;;;7.11;100.00;101546.38;4882399;29;20039;-72
2022/01/07 05:37:28;;;;;;;20.88;14.02;;;;;;;6.82;100.00;101557.34;4882235;29;20029;-72
2022/01/07 05:40:14;;;;;;;22.63;14.18;;;;;;;7.09;100.00;101562.84;4883262;29;20021;-73
2022/01/07 05:43:00;;;;;;;24.48;15.30;;;;;;;7.14;100.00;101559.44;4882123;29;20029;-72
2022/01/07 05:45:46;;;;;;;21.08;14.38;;;;;;;6.95;100.00;101569.66;4882064;29;20366;-72
2022/01/07 05:48:32;;;;;;;21.95;14.40;;;;;;;7.25;100.00;101570.84;4882687;29;20139;-72
2022/01/07 05:51:18;;;;;;;21.42;14.20;;;;;;;7.14;100.00;101576.78;4882578;29;20148;-74
2022/01/07 05:54:04;;;;;;;24.52;15.45;;;;;;;6.92;100.00;101577.44;4881705;29;20040;-72
2022/01/07 05:56:49;;;;;;;25.25;15.25;;;;;;;6.71;100.00;101577.22;4882324;29;20029;-73
2022/01/07 05:59:35;;;;;;;25.83;15.27;;;;;;;7.07;100.00;101580.22;4883159;29;20029;-72
2022/01/07 06:02:21;;;;;;;22.50;14.68;;;;;;;7.09;100.00;101576.78;4881974;29;20097;-73
2022/01/07 06:05:07;;;;;;;23.15;14.20;;;;;;;7.33;100.00;101591.75;4882841;29;20029;-73
2022/01/07 06:07:53;;;;;;;24.33;14.70;;;;;;;7.46;100.00;101588.41;4882536;29;20036;-72
2022/01/07 06:10:38;;;;;;;22.88;14.90;;;;;;;7.30;100.00;101595.22;4882855;29;20096;-72
2022/01/07 06:13:24;;;;;;;20.58;13.68;;;;;;;7.52;100.00;101596.28;4881602;29;20025;-73
2022/01/07 06:16:10;;;;;;;22.50;14.57;;;;;;;7.60;100.00;101600.69;4882323;29;20036;-70
2022/01/07 06:18:58;;;;;;;18.80;12.93;;;;;;;7.48;100.00;101615.38;4882398;29;20059;-70
2022/01/07 06:21:44;;;;;;;20.73;13.65;;;;;;;7.56;100.00;101611.97;4882377;29;20025;-69
2022/01/07 06:24:33;;;;;;;24.65;13.90;;;;;;;7.43;100.00;101617.06;4881851;29;20477;-73
2022/01/07 06:27:19;;;;;;;26.30;13.95;;;;;;;7.13;100.00;101612.44;4882145;29;20079;-72
2022/01/07 06:30:07;;;;;;;24.92;14.70;;;;;;;7.32;100.00;101618.69;4881647;29;20033;-72
2022/01/07 06:32:53;;;;;;;25.58;13.90;;;;;;;7.50;100.00;101624.97;4881593;29;20044;-72
2022/01/07 06:35:39;;;;;;;24.02;13.77;;;;;;;7.51;100.00;101631.06;4880869;29;20128;-72
2022/01/07 06:38:25;;;;;;;20.88;13.75;;;;;;;7.24;100.00;101634.22;4881774;29;20033;-72
2022/01/07 06:41:10;;;;;;;27.33;13.70;;;;;;;7.40;100.00;101648.31;4881210;29;20358;-72
2022/01/07 06:43:56;;;;;;;21.77;13.30;;;;;;;7.27;100.00;101644.69;4881295;29;20116;-72
2022/01/07 06:46:43;;;;;;;20.05;13.65;;;;;;;7.66;100.00;101652.94;4881079;29;20025;-73
2022/01/07 06:49:32;;;;;;;20.65;13.98;;;;;;;7.76;100.00;101656.50;4881846;29;20041;-73
2022/01/07 06:52:18;;;;;;;23.13;14.70;;;;;;;7.64;100.00;101662.44;4882434;29;20163;-73
2022/01/07 06:55:04;;;;;;;22.83;14.30;;;;;;;8.01;100.00;101668.88;4881841;29;20124;-72
2022/01/07 06:57:50;;;;;;;26.33;14.32;;;;;;;8.19;100.00;101671.59;4882504;29;20228;-72
2022/01/07 07:00:35;;;;;;;23.33;14.13;;;;;;;8.00;100.00;101673.22;4881674;29;20429;-72
2022/01/07 07:03:22;;;;;;;24.25;14.52;;;;;;;7.93;100.00;101676.66;4881913;29;20112;-72
2022/01/07 07:06:08;;;;;;;31.15;15.25;;;;;;;7.98;100.00;101674.06;4880624;29;20047;-72
2022/01/07 07:08:54;;;;;;;22.35;13.50;;;;;;;8.38;100.00;101673.53;4881171;29;20455;-71
2022/01/07 07:11:40;;;;;;;23.48;13.73;;;;;;;8.25;100.00;101675.19;4880480;29;20446;-72
2022/01/07 07:14:25;;;;;;;21.80;13.48;;;;;;;8.10;100.00;101675.06;4880774;29;20032;-72
2022/01/07 07:17:12;;;;;;;20.20;13.45;;;;;;;8.31;100.00;101683.06;4880827;29;20029;-72
2022/01/07 07:19:58;;;;;;;18.92;13.02;;;;;;;7.98;100.00;101685.38;4881074;29;20037;-71
2022/01/07 07:22:44;;;;;;;20.48;13.10;;;;;;;7.96;100.00;101686.25;4880854;29;20037;-72
2022/01/07 07:25:29;;;;;;;28.85;14.00;;;;;;;7.80;100.00;101677.38;4881285;29;20057;-72
2022/01/07 07:28:15;;;;;;;18.27;12.52;;;;;;;8.01;100.00;101687.16;4867948;29;20068;-72
2022/01/07 07:31:04;;;;;;;19.55;12.50;;;;;;;8.07;100.00;101688.06;4880479;29;20036;-71
2022/01/07 07:36:40;;;;;;;19.13;13.10;;;;;;;8.08;100.00;101689.81;4880700;29;20029;-72
2022/01/07 07:39:26;;;;;;;21.63;14.38;;;;;;;8.75;100.00;101689.44;4881294;29;20043;-71
2022/01/07 07:42:11;;;;;;;23.20;12.85;;;;;;;8.64;100.00;101696.34;4879523;29;20032;-72
2022/01/07 07:44:57;;;;;;;23.58;12.98;;;;;;;8.04;100.00;101697.63;4879699;29;20450;-73
2022/01/07 07:47:43;;;;;;;22.23;13.05;;;;;;;7.78;100.00;101689.56;4881101;29;20053;-72
2022/01/07 07:50:29;;;;;;;21.95;13.27;;;;;;;7.69;100.00;101691.19;4880393;29;20064;-70
2022/01/07 07:53:14;;;;;;;27.05;14.32;;;;;;;8.29;100.00;101695.25;4880800;29;20064;-70
2022/01/07 07:56:00;;;;;;;21.88;12.48;;;;;;;8.06;100.00;101701.09;4879551;29;20077;-71
2022/01/07 07:58:46;;;;;;;19.60;13.00;;;;;;;8.07;100.00;101701.13;4880823;29;20037;-71
2022/01/07 08:01:32;;;;;;;23.40;13.68;;;;;;;8.36;100.00;101698.78;4880895;29;20021;-70
2022/01/07 08:04:21;;;;;;;18.73;12.10;;;;;;;8.38;100.00;101699.63;4881037;29;20124;-71
2022/01/07 08:07:07;;;;;;;24.08;13.57;;;;;;;8.58;100.00;101706.75;4880312;29;20116;-70
2022/01/07 08:09:54;;;;;;;21.48;13.55;;;;;;;8.41;100.00;101694.44;4880675;29;20443;-71
2022/01/07 08:13:28;;;;;;;18.30;12.40;;;;;;;8.42;100.00;101702.28;4879763;29;20062;-71
2022/01/07 08:16:02;;;;;;;20.33;12.25;;;;;;;8.47;100.00;101710.13;4879491;29;20045;-71
2022/01/07 08:18:56;;;;;;;25.52;13.88;;;;;;;8.71;100.00;101703.34;4880240;29;20363;-71
2022/01/07 08:21:41;;;;;;;32.45;14.07;;;;;;;8.49;100.00;101697.97;4880308;29;20033;-70
2022/01/07 08:24:27;;;;;;;23.52;15.00;;;;;;;8.69;100.00;101709.44;4879737;29;20371;-74
2022/01/07 08:27:13;;;;;;;20.33;13.48;;;;;;;8.57;100.00;101715.44;4880726;29;20044;-73
2022/01/07 08:30:03;;;;;;;20.05;13.18;;;;;;;8.66;100.00;101719.84;4880180;29;20116;-73
2022/01/07 08:35:53;;;;;;;20.40;12.68;;;;;;;8.53;100.00;101713.66;4880158;29;20033;-72
2022/01/07 08:38:39;;;;;;;20.52;12.93;;;;;;;8.44;100.00;101712.75;4880115;29;20028;-72
2022/01/07 08:41:27;;;;;;;28.50;13.48;;;;;;;8.24;100.00;101706.50;4866436;29;20060;-72
2022/01/07 08:47:40;;;;;;;24.05;14.73;;;;;;;8.49;100.00;101708.44;5120545;23;20435;-73
2022/01/07 08:50:26;;;;;;;19.52;12.70;;;;;;;8.52;100.00;101708.47;4898423;29;20051;-72
2022/01/07 08:53:12;;;;;;;20.20;12.70;;;;;;;8.49;100.00;101711.91;4898493;29;20104;-72
2022/01/07 08:55:58;;;;;;;22.20;12.98;;;;;;;8.39;100.00;101719.66;4878838;29;20148;-72
2022/01/07 08:58:44;;;;;;;29.35;15.82;;;;;;;8.46;100.00;101714.50;4882802;29;20535;-73
2022/01/07 09:01:33;;;;;;;19.35;13.35;;;;;;;8.43;100.00;101713.59;4882857;29;20044;-73
2022/01/07 09:04:19;;;;;;;20.45;13.35;;;;;;;8.64;100.00;101722.44;4883342;29;20037;-73
2022/01/07 09:07:05;;;;;;;22.20;13.77;;;;;;;8.30;100.00;101717.00;4882710;29;20037;-73
2022/01/07 09:09:50;;;;;;;18.27;12.93;;;;;;;8.41;100.00;101725.78;4882969;29;20033;-72
2022/01/07 09:12:36;;;;;;;20.98;13.85;;;;;;;8.72;100.00;101727.75;4882991;29;20447;-72
2022/01/07 09:15:22;;;;;;;21.13;12.57;;;;;;;8.75;100.00;101718.19;4882841;29;20033;-73
2022/01/07 09:21:56;;;;;;;22.38;14.35;;;;;;;8.87;100.00;101728.69;4883327;29;20045;-72
2022/01/07 09:24:41;;;;;;;23.02;13.95;;;;;;;8.76;100.00;101722.53;4882313;29;20101;-72
2022/01/07 09:27:27;;;;;;;20.88;12.93;;;;;;;8.85;100.00;101721.72;4882873;29;20424;-71
2022/01/07 09:30:13;;;;;;;18.77;13.05;;;;;;;8.52;100.00;101711.06;4883367;29;20063;-72
2022/01/07 09:32:59;;;;;;;22.15;14.35;;;;;;;9.01;100.00;101718.31;4882958;29;20040;-71
2022/01/07 09:35:44;;;;;;;25.27;13.77;;;;;;;8.39;100.00;101709.22;4881982;29;20434;-72
2022/01/07 09:38:30;;;;;;;21.67;13.15;;;;;;;8.47;100.00;101710.13;4881664;29;20060;-73
2022/01/07 09:41:46;;;;;;;21.13;14.13;;;;;;;8.39;100.00;101709.22;4882746;29;20036;-71
2022/01/07 09:44:37;;;;;;;24.63;14.23;;;;;;;8.70;100.00;101716.41;4881927;29;20032;-71
2022/01/07 09:47:24;;;;;;;21.85;14.15;;;;;;;8.31;100.00;101711.78;4881555;29;20049;-71
2022/01/07 09:50:10;;;;;;;28.55;15.50;;;;;;;7.91;100.00;101714.88;4882211;29;20025;-71
2022/01/07 09:52:55;;;;;;;20.73;14.23;;;;;;;8.42;100.00;101719.69;4882537;29;20029;-71
2022/01/07 09:55:44;;;;;;;20.45;14.00;;;;;;;8.49;100.00;101722.34;4882033;29;20139;-70
2022/01/07 09:58:34;;;;;;;21.35;14.07;;;;;;;8.73;100.00;101725.13;4882061;29;20033;-72
2022/01/07 10:01:22;;;;;;;20.60;14.27;;;;;;;8.79;100.00;101726.91;4869133;29;20025;-72
2022/01/07 10:10:17;;;;;;;23.95;14.32;;;;;;;8.17;100.00;101713.41;5543332;23;20063;-72
2022/01/07 10:13:04;;;;;;;19.88;13.70;;;;;;;8.61;100.00;101721.56;4899763;29;20044;-72
2022/01/07 10:15:49;;;;;;;26.20;15.27;;;;;;;7.80;100.00;101713.06;4895168;29;20040;-72
2022/01/07 10:18:37;;;;;;;22.80;14.13;;;;;;;7.67;100.00;101719.00;4881654;29;20100;-72
2022/01/07 10:21:23;;;;;;;23.40;13.40;;;;;;;8.50;100.00;101712.78;4868729;29;20459;-72
2022/01/07 10:24:09;;;;;;;19.70;13.77;;;;;;;8.38;100.00;101713.59;4869340;29;20119;-71
2022/01/07 10:27:11;;;;;;;22.23;13.82;;;;;;;8.45;100.00;101711.88;4869114;29;20029;-72
2022/01/07 10:30:14;;;;;;;18.85;12.77;;;;;;;8.87;100.00;101712.13;4881769;29;20029;-71
2022/01/07 10:32:59;;;;;;;21.10;13.23;;;;;;;8.34;100.00;101708.31;4881448;29;20033;-71
2022/01/07 10:36:08;;;;;;;23.15;13.90;;;;;;;8.49;100.00;101709.28;4870568;29;20108;-71
2022/01/07 10:39:01;;;;;;;26.92;14.82;;;;;;;8.41;100.00;101716.19;4867954;29;20044;-72
2022/01/07 10:42:00;;;;;;;25.48;15.63;;;;;;;8.38;100.00;101704.88;4881660;29;20080;-72
2022/01/07 10:45:03;;;;;;;27.48;16.65;;;;;;;8.40;100.00;101706.63;4881958;29;20048;-72
2022/01/07 10:47:51;;;;;;;26.13;16.40;;;;;;;8.59;100.00;101710.22;4881146;29;20064;-72
2022/01/07 10:51:05;;;;;;;26.15;16.00;;;;;;;8.67;100.00;101705.91;4881511;29;20032;-72
2022/01/07 10:53:54;;;;;;;25.40;16.75;;;;;;;8.85;100.00;101700.81;4880707;29;20462;-72
2022/01/07 10:56:43;;;;;;;31.10;16.60;;;;;;;9.03;100.00;101698.28;4881716;29;20057;-72
2022/01/07 10:59:29;;;;;;;27.27;15.20;;;;;;;8.63;100.00;101704.16;4880996;29;20443;-71
2022/01/07 11:02:15;;;;;;;23.85;14.65;;;;;;;8.82;100.00;101700.78;4880911;29;20108;-72
2022/01/07 11:05:02;;;;;;;26.20;16.95;;;;;;;9.16;100.00;101711.41;4880664;29;20032;-71
2022/01/07 11:07:48;;;;;;;23.75;15.48;;;;;;;8.79;100.00;101706.88;4880626;29;20037;-72
2022/01/07 11:10:36;;;;;;;24.08;14.63;;;;;;;9.15;100.00;101714.00;4880630;29;20063;-72
2022/01/07 11:13:22;;;;;;;20.35;13.52;;;;;;;8.46;100.00;101701.44;4880479;29;20048;-72
2022/01/07 11:16:08;;;;;;;24.67;13.82;;;;;;;9.43;100.00;101703.66;4881230;29;20105;-72
2022/01/07 11:18:56;;;;;;;21.08;13.70;;;;;;;8.98;100.00;101707.84;4879402;29;20046;-71
2022/01/07 11:21:42;;;;;;;22.75;13.95;;;;;;;9.43;100.00;101713.25;4880362;29;20031;-71
2022/01/07 11:24:35;;;;;;;22.80;13.90;;;;;;;9.50;100.00;101704.56;4880249;29;20052;-71
2022/01/07 11:27:26;;;;;;;22.25;14.32;;;;;;;9.54;100.00;101701.06;4880575;29;20358;-71
2022/01/07 11:30:14;;;;;;;26.92;15.93;;;;;;;9.63;100.00;101695.84;4879984;29;20040;-71
2022/01/07 11:33:00;;;;;;;20.75;14.20;;;;;;;10.18;100.00;101702.91;4880596;29;20443;-73
2022/01/07 11:35:47;;;;;;;19.25;14.25;;;;;;;10.10;100.00;101704.66;4880002;29;20415;-73
2022/01/07 11:38:59;;;;;;;22.83;13.73;;;;;;;9.92;100.00;101705.50;4868491;29;20049;-71
2022/01/07 11:41:51;;;;;;;20.92;13.50;;;;;;;9.43;100.00;101710.63;4880063;29;20085;-73
2022/01/07 11:44:36;;;;;;;22.30;14.18;;;;;;;9.72;100.00;101707.22;4881362;29;20037;-71
2022/01/07 11:47:24;;;;;;;22.83;14.05;;;;;;;9.55;100.00;101713.28;4880748;29;20028;-72
2022/01/07 11:50:09;;;;;;;24.77;15.07;;;;;;;9.30;100.00;101714.06;4867634;29;20044;-71
2022/01/07 11:52:58;;;;;;;20.23;13.88;;;;;;;9.36;100.00;101704.50;4879349;29;20057;-72
2022/01/07 11:55:44;;;;;;;22.20;13.18;;;;;;;9.22;100.00;101710.56;4880950;29;20025;-70
2022/01/07 11:58:55;;;;;;;20.15;13.77;;;;;;;9.54;100.00;101698.47;4881221;29;20041;-71
2022/01/07 12:01:42;;;;;;;22.58;14.32;;;;;;;9.36;100.00;101703.63;4867169;29;20156;-72
2022/01/07 12:04:29;;;;;;;24.10;15.35;;;;;;;9.56;100.00;101699.31;4880788;29;20473;-71
2022/01/07 12:07:15;;;;;;;28.10;15.43;;;;;;;9.18;100.00;101698.34;4880672;29;20403;-71
2022/01/07 12:10:13;;;;;;;28.27;16.23;;;;;;;9.54;100.00;101693.22;4880357;29;20085;-71
2022/01/07 12:13:00;;;;;;;24.00;15.30;;;;;;;9.03;100.00;101698.28;4880030;29;20033;-72
2022/01/07 12:15:55;;;;;;;23.42;15.40;;;;;;;8.99;100.00;101699.13;4880035;29;20033;-71
2022/01/07 12:18:40;;;;;;;23.65;16.13;;;;;;;8.93;100.00;101702.56;4867181;29;20033;-71
2022/01/07 12:21:26;;;;;;;28.42;17.05;;;;;;;9.05;100.00;101700.03;4879555;29;20104;-71
2022/01/07 12:24:15;;;;;;;23.88;16.42;;;;;;;8.24;100.00;101707.38;4878705;29;20454;-69
2022/01/07 12:27:07;;;;;;;30.08;15.85;;;;;;;8.55;100.00;101708.47;4879767;29;20085;-70
2022/01/07 12:29:58;;;;;;;24.02;16.40;;;;;;;8.15;100.00;101703.78;4879369;29;20036;-71
2022/01/07 12:41:37;;;;;;;29.77;19.42;;;;;;;8.17;100.00;101702.94;5422701;23;20065;-71
2022/01/07 12:44:24;;;;;;;28.15;18.23;;;;;;;8.33;100.00;101704.81;4902157;29;20028;-70
2022/01/07 12:47:14;;;;;;;25.52;16.10;;;;;;;7.64;100.00;101713.75;4885975;29;20088;-71
2022/01/07 12:50:04;;;;;;;25.48;17.17;;;;;;;7.52;100.00;101701.44;4883844;29;20036;-72
2022/01/07 12:52:51;;;;;;;33.35;18.05;;;;;;;7.77;100.00;101700.84;4884410;29;20029;-70
2022/01/07 12:55:36;;;;;;;30.77;19.13;;;;;;;7.94;100.00;101704.50;4883423;29;20379;-71
2022/01/07 12:58:28;;;;;;;30.92;20.08;;;;;;;7.78;100.00;101707.81;4884033;29;20454;-70
2022/01/07 13:01:42;;;;;;;76.80;22.13;;;;;;;7.22;100.00;101703.72;4882842;29;20033;-71
2022/01/07 13:04:28;;;;;;;36.80;22.58;;;;;;;7.34;100.00;101703.88;4883649;29;20056;-71
2022/01/07 13:07:14;;;;;;;33.67;20.77;;;;;;;7.21;100.00;101709.81;4882641;29;20105;-71
2022/01/07 13:10:00;;;;;;;33.97;20.52;;;;;;;6.75;100.00;101707.44;4883247;29;20473;-71
2022/01/07 13:12:57;;;;;;;33.85;20.83;;;;;;;6.55;100.00;101715.84;4882509;29;20028;-71
2022/01/07 13:15:58;;;;;;;37.55;22.08;;;;;;;6.52;100.00;101711.47;4882607;29;20447;-71
2022/01/07 13:18:43;;;;;;;36.67;23.17;;;;;;;6.35;100.00;101718.13;4882025;29;20043;-71
2022/01/07 13:25:13;;;;;;;40.92;22.77;;;;;;;5.94;100.00;101727.00;4882630;29;20039;-71
2022/01/07 13:28:00;;;;;;;35.13;22.77;;;;;;;6.08;100.00;101724.63;4882568;29;20043;-70
2022/01/07 13:30:46;;;;;;;39.05;23.85;;;;;;;6.17;100.00;101724.78;4882062;29;20112;-71
2022/01/07 13:33:32;;;;;;;37.05;23.73;;;;;;;6.38;100.00;101728.59;4882990;29;20128;-71
2022/01/07 13:36:18;;;;;;;40.45;23.02;;;;;;;6.47;100.00;101722.69;4882213;29;20044;-71
2022/01/07 13:39:06;;;;;;;41.70;24.88;;;;;;;6.83;100.00;101728.41;4883040;29;20068;-70
2022/01/07 13:42:03;;;;;;;43.53;24.30;;;;;;;6.47;100.00;101722.69;4882459;29;20049;-71
2022/01/07 13:44:55;;;;;;;48.97;24.48;;;;;;;6.30;100.00;101724.16;4883396;29;20029;-71
2022/01/07 13:47:40;;;;;;;37.25;23.63;;;;;;;5.99;100.00;101727.09;4882580;29;20029;-71
2022/01/07 13:50:31;;;;;;;37.03;23.42;;;;;;;6.03;100.00;101734.09;4882994;29;20024;-70
2022/01/07 13:53:19;;;;;;;39.65;24.95;;;;;;;6.34;100.00;101723.34;4881893;29;20084;-71